sensor_id;sensor_type;location;lat;lon;timestamp;pressure;altitude;pressure_sealevel;temperature;humidity
929;BME280;451;47.988;7.842;2024-02-23T00:03:08;96790.94;;;6.79;100.00
929;BME280;451;47.988;7.842;2024-02-23T00:12:12;96795.53;;;6.77;100.00
929;BME280;451;47.988;7.842;2024-02-23T00:21:17;96803.97;;;6.58;100.00
929;BME280;451;47.988;7.842;2024-02-23T00:30:21;96832.66;;;6.73;100.00
929;BME280;451;47.988;7.842;2024-02-23T00:39:26;96824.22;;;6.56;100.00
929;BME280;451;47.988;7.842;2024-02-23T00:48:29;96850.81;;;6.45;100.00
929;BME280;451;47.988;7.842;2024-02-23T00:57:34;96851.19;;;6.42;100.00
929;BME280;451;47.988;7.842;2024-02-23T01:06:38;96853.41;;;6.24;100.00
929;BME280;451;47.988;7.842;2024-02-23T01:15:43;96890.09;;;6.22;100.00
929;BME280;451;47.988;7.842;2024-02-23T01:24:47;96893.97;;;6.26;100.00
929;BME280;451;47.988;7.842;2024-02-23T01:34:00;96878.69;;;6.08;100.00
929;BME280;451;47.988;7.842;2024-02-23T01:43:04;96842.09;;;5.73;100.00
929;BME280;451;47.988;7.842;2024-02-23T01:52:10;96858.44;;;5.81;100.00
929;BME280;451;47.988;7.842;2024-02-23T02:01:15;96831.81;;;5.56;100.00
929;BME280;451;47.988;7.842;2024-02-23T02:10:20;96792.03;;;5.48;100.00
929;BME280;451;47.988;7.842;2024-02-23T02:19:24;96803.59;;;5.60;100.00
929;BME280;451;47.988;7.842;2024-02-23T02:28:29;96800.91;;;5.53;100.00
929;BME280;451;47.988;7.842;2024-02-23T02:37:36;96795.31;;;5.71;100.00
929;BME280;451;47.988;7.842;2024-02-23T02:46:41;96814.31;;;5.94;100.00
929;BME280;451;47.988;7.842;2024-02-23T02:55:48;96821.38;;;6.15;100.00
929;BME280;451;47.988;7.842;2024-02-23T03:04:53;96807.91;;;6.12;100.00
929;BME280;451;47.988;7.842;2024-02-23T03:14:06;96764.06;;;5.56;100.00
929;BME280;451;47.988;7.842;2024-02-23T03:23:13;96813.03;;;5.76;100.00
929;BME280;451;47.988;7.842;2024-02-23T03:32:17;96791.38;;;5.90;100.00
929;BME280;451;47.988;7.842;2024-02-23T03:41:24;96803.28;;;6.14;100.00
929;BME280;451;47.988;7.842;2024-02-23T03:50:28;96777.97;;;5.78;100.00
929;BME280;451;47.988;7.842;2024-02-23T03:59:35;96780.31;;;5.73;100.00
929;BME280;451;47.988;7.842;2024-02-23T04:08:41;96798.03;;;5.63;100.00
929;BME280;451;47.988;7.842;2024-02-23T04:17:47;96737.66;;;5.30;100.00
929;BME280;451;47.988;7.842;2024-02-23T04:26:52;96751.22;;;5.25;100.00
929;BME280;451;47.988;7.842;2024-02-23T04:36:00;96759.56;;;5.21;100.00
929;BME280;451;47.988;7.842;2024-02-23T04:45:08;96747.16;;;5.08;100.00
929;BME280;451;47.988;7.842;2024-02-23T04:54:17;96769.88;;;5.14;100.00
929;BME280;451;47.988;7.842;2024-02-23T05:03:23;96778.53;;;5.30;97.37
929;BME280;451;47.988;7.842;2024-02-23T05:12:36;96797.22;;;5.18;98.73
929;BME280;451;47.988;7.842;2024-02-23T05:21:43;96804.19;;;5.03;100.00
929;BME280;451;47.988;7.842;2024-02-23T05:30:48;96799.03;;;4.95;100.00
929;BME280;451;47.988;7.842;2024-02-23T05:39:58;96815.19;;;4.91;100.00
929;BME280;451;47.988;7.842;2024-02-23T05:49:09;96769.66;;;4.49;100.00
929;BME280;451;47.988;7.842;2024-02-23T05:58:12;96820.84;;;4.94;100.00
929;BME280;451;47.988;7.842;2024-02-23T06:07:26;96790.78;;;4.69;100.00
929;BME280;451;47.988;7.842;2024-02-23T06:16:31;96824.78;;;4.90;100.00
929;BME280;451;47.988;7.842;2024-02-23T06:25:37;96826.75;;;4.88;100.00
929;BME280;451;47.988;7.842;2024-02-23T06:34:41;96815.63;;;4.94;100.00
929;BME280;451;47.988;7.842;2024-02-23T06:43:53;96807.22;;;4.92;100.00
929;BME280;451;47.988;7.842;2024-02-23T06:52:59;96818.34;;;4.86;100.00
929;BME280;451;47.988;7.842;2024-02-23T07:02:07;96811.94;;;4.88;100.00
929;BME280;451;47.988;7.842;2024-02-23T07:11:11;96843.41;;;5.24;98.57
929;BME280;451;47.988;7.842;2024-02-23T07:20:31;96821.28;;;5.50;97.40
929;BME280;451;47.988;7.842;2024-02-23T07:29:40;96783.56;;;5.46;94.60
929;BME280;451;47.988;7.842;2024-02-23T07:38:47;96859.44;;;6.10;93.07
929;BME280;451;47.988;7.842;2024-02-23T07:47:51;96851.78;;;6.23;91.21
929;BME280;451;47.988;7.842;2024-02-23T07:56:57;96831.09;;;5.77;91.93
929;BME280;451;47.988;7.842;2024-02-23T08:06:01;96833.81;;;5.84;92.44
929;BME280;451;47.988;7.842;2024-02-23T08:15:07;96840.06;;;6.19;90.68
929;BME280;451;47.988;7.842;2024-02-23T08:24:11;96814.19;;;6.17;89.06
929;BME280;451;47.988;7.842;2024-02-23T08:33:19;96827.09;;;6.61;87.57
929;BME280;451;47.988;7.842;2024-02-23T08:42:23;96802.81;;;7.10;83.68
929;BME280;451;47.988;7.842;2024-02-23T08:51:28;96810.88;;;7.36;78.39
929;BME280;451;47.988;7.842;2024-02-23T09:00:34;96811.88;;;7.76;75.49
929;BME280;451;47.988;7.842;2024-02-23T09:09:49;96775.78;;;7.93;71.13
929;BME280;451;47.988;7.842;2024-02-23T09:18:53;96769.88;;;8.38;67.87
929;BME280;451;47.988;7.842;2024-02-23T09:27:58;96774.28;;;8.31;68.23
929;BME280;451;47.988;7.842;2024-02-23T09:37:02;96778.78;;;8.50;68.61
929;BME280;451;47.988;7.842;2024-02-23T09:46:07;96770.91;;;8.50;67.17
929;BME280;451;47.988;7.842;2024-02-23T09:55:10;96759.47;;;8.71;66.76
929;BME280;451;47.988;7.842;2024-02-23T10:04:18;96741.28;;;9.29;67.80
929;BME280;451;47.988;7.842;2024-02-23T10:13:24;96754.75;;;9.59;67.00
929;BME280;451;47.988;7.842;2024-02-23T10:22:32;96730.97;;;9.98;70.36
929;BME280;451;47.988;7.842;2024-02-23T10:31:38;96699.09;;;9.88;63.57
929;BME280;451;47.988;7.842;2024-02-23T10:40:45;96728.66;;;10.53;63.53
929;BME280;451;47.988;7.842;2024-02-23T10:49:51;96726.25;;;10.13;59.42
929;BME280;451;47.988;7.842;2024-02-23T10:58:58;96691.34;;;10.69;59.82
929;BME280;451;47.988;7.842;2024-02-23T11:08:06;96713.91;;;11.63;56.91
929;BME280;451;47.988;7.842;2024-02-23T11:17:18;96703.16;;;11.28;57.06
929;BME280;451;47.988;7.842;2024-02-23T11:26:31;96670.97;;;10.89;57.30
929;BME280;451;47.988;7.842;2024-02-23T11:35:46;96707.41;;;10.86;57.25
929;BME280;451;47.988;7.842;2024-02-23T11:45:22;96709.38;;;11.88;55.47
929;BME280;451;47.988;7.842;2024-02-23T11:54:31;96688.72;;;12.33;52.57
929;BME280;451;47.988;7.842;2024-02-23T12:03:36;96672.19;;;12.26;52.91
929;BME280;451;47.988;7.842;2024-02-23T12:12:51;96676.56;;;12.32;53.74
929;BME280;451;47.988;7.842;2024-02-23T12:22:21;96680.16;;;11.78;54.29
929;BME280;451;47.988;7.842;2024-02-23T12:31:31;96677.47;;;12.26;54.63
929;BME280;451;47.988;7.842;2024-02-23T12:40:37;96675.34;;;12.05;53.59
929;BME280;451;47.988;7.842;2024-02-23T12:49:42;96670.22;;;12.10;53.62
929;BME280;451;47.988;7.842;2024-02-23T12:58:49;96645.25;;;12.66;52.95
929;BME280;451;47.988;7.842;2024-02-23T13:08:00;96673.66;;;12.64;52.87
929;BME280;451;47.988;7.842;2024-02-23T13:17:04;96643.94;;;12.57;52.24
929;BME280;451;47.988;7.842;2024-02-23T13:26:10;96640.03;;;12.36;52.31
929;BME280;451;47.988;7.842;2024-02-23T13:35:16;96631.97;;;12.19;52.00
929;BME280;451;47.988;7.842;2024-02-23T13:44:25;96606.41;;;12.08;53.98
929;BME280;451;47.988;7.842;2024-02-23T13:53:30;96583.47;;;11.97;53.59
929;BME280;451;47.988;7.842;2024-02-23T14:02:42;96599.63;;;11.70;58.13
929;BME280;451;47.988;7.842;2024-02-23T14:11:47;96611.53;;;11.25;63.98
929;BME280;451;47.988;7.842;2024-02-23T14:20:52;96585.97;;;11.14;67.02
929;BME280;451;47.988;7.842;2024-02-23T14:29:56;96599.25;;;11.85;65.89
929;BME280;451;47.988;7.842;2024-02-23T14:39:01;96575.72;;;11.42;62.02
929;BME280;451;47.988;7.842;2024-02-23T14:48:07;96580.97;;;10.69;59.89
929;BME280;451;47.988;7.842;2024-02-23T14:57:12;96573.59;;;11.32;63.06
929;BME280;451;47.988;7.842;2024-02-23T15:06:16;96575.59;;;12.08;61.04
929;BME280;451;47.988;7.842;2024-02-23T15:15:24;96544.94;;;11.72;59.79
929;BME280;451;47.988;7.842;2024-02-23T15:24:28;96539.13;;;11.52;53.36
929;BME280;451;47.988;7.842;2024-02-23T15:33:33;96547.16;;;11.57;52.77
929;BME280;451;47.988;7.842;2024-02-23T15:42:38;96531.19;;;11.41;53.66
929;BME280;451;47.988;7.842;2024-02-23T15:51:45;96522.88;;;10.96;54.08
929;BME280;451;47.988;7.842;2024-02-23T16:00:48;96542.78;;;11.21;54.85
929;BME280;451;47.988;7.842;2024-02-23T16:09:53;96539.25;;;11.27;54.53
929;BME280;451;47.988;7.842;2024-02-23T16:18:58;96530.47;;;11.04;55.47
929;BME280;451;47.988;7.842;2024-02-23T16:28:06;96510.81;;;10.51;55.43
929;BME280;451;47.988;7.842;2024-02-23T16:37:15;96545.59;;;10.29;57.46
929;BME280;451;47.988;7.842;2024-02-23T16:46:23;96521.00;;;9.98;57.52
929;BME280;451;47.988;7.842;2024-02-23T16:55:34;96568.56;;;10.08;61.15
929;BME280;451;47.988;7.842;2024-02-23T17:04:42;96546.84;;;9.95;63.62
929;BME280;451;47.988;7.842;2024-02-23T17:13:45;96558.91;;;9.40;65.05
929;BME280;451;47.988;7.842;2024-02-23T17:22:50;96575.72;;;8.68;69.73
929;BME280;451;47.988;7.842;2024-02-23T17:31:58;96570.91;;;8.38;71.69
929;BME280;451;47.988;7.842;2024-02-23T17:41:04;96605.34;;;8.42;75.99
929;BME280;451;47.988;7.842;2024-02-23T17:59:43;96618.38;;;8.02;82.55
929;BME280;451;47.988;7.842;2024-02-23T18:08:56;96588.13;;;7.47;87.14
929;BME280;451;47.988;7.842;2024-02-23T18:18:05;96606.38;;;7.34;88.67
929;BME280;451;47.988;7.842;2024-02-23T18:27:09;96592.16;;;7.02;91.50
929;BME280;451;47.988;7.842;2024-02-23T18:36:16;96590.44;;;6.81;93.58
929;BME280;451;47.988;7.842;2024-02-23T19:05:08;96610.06;;;7.05;90.74
929;BME280;451;47.988;7.842;2024-02-23T19:14:12;96592.03;;;7.17;89.23
929;BME280;451;47.988;7.842;2024-02-23T19:23:22;96594.56;;;7.51;86.77
929;BME280;451;47.988;7.842;2024-02-23T19:32:30;96588.06;;;7.34;86.48
929;BME280;451;47.988;7.842;2024-02-23T19:41:51;96594.59;;;7.04;86.91
929;BME280;451;47.988;7.842;2024-02-23T19:50:55;96612.06;;;6.69;88.62
929;BME280;451;47.988;7.842;2024-02-23T20:00:01;96603.78;;;6.59;88.88
929;BME280;451;47.988;7.842;2024-02-23T20:09:08;96581.91;;;6.32;89.31
929;BME280;451;47.988;7.842;2024-02-23T20:18:14;96615.41;;;6.28;92.74
929;BME280;451;47.988;7.842;2024-02-23T20:27:19;96607.16;;;5.82;95.80
929;BME280;451;47.988;7.842;2024-02-23T20:36:32;96621.31;;;5.94;93.77
929;BME280;451;47.988;7.842;2024-02-23T20:45:56;96608.78;;;6.95;82.68
929;BME280;451;47.988;7.842;2024-02-23T20:55:46;96690.66;;;7.08;88.11
929;BME280;451;47.988;7.842;2024-02-23T21:04:50;96681.53;;;6.91;87.51
929;BME280;451;47.988;7.842;2024-02-23T21:13:59;96676.97;;;6.72;89.84
929;BME280;451;47.988;7.842;2024-02-23T21:23:03;96687.06;;;6.81;92.11
929;BME280;451;47.988;7.842;2024-02-23T21:32:08;96680.09;;;6.88;90.84
929;BME280;451;47.988;7.842;2024-02-23T21:41:13;96657.66;;;6.66;89.06
929;BME280;451;47.988;7.842;2024-02-23T21:50:23;96675.66;;;7.17;87.77
929;BME280;451;47.988;7.842;2024-02-23T21:59:44;96685.53;;;6.94;88.82
929;BME280;451;47.988;7.842;2024-02-23T22:08:55;96683.41;;;7.04;91.07
929;BME280;451;47.988;7.842;2024-02-23T22:27:27;96707.91;;;6.75;95.14
929;BME280;451;47.988;7.842;2024-02-23T22:36:39;96720.44;;;6.58;95.80
929;BME280;451;47.988;7.842;2024-02-23T22:45:48;96720.94;;;6.47;94.86
929;BME280;451;47.988;7.842;2024-02-23T22:55:00;96725.41;;;6.53;94.58
929;BME280;451;47.988;7.842;2024-02-23T23:04:06;96731.22;;;6.48;94.85
929;BME280;451;47.988;7.842;2024-02-23T23:13:12;96746.53;;;6.58;97.62
929;BME280;451;47.988;7.842;2024-02-23T23:22:17;96754.81;;;7.11;96.71
929;BME280;451;47.988;7.842;2024-02-23T23:31:21;96781.88;;;6.82;100.00
929;BME280;451;47.988;7.842;2024-02-23T23:40:31;96814.97;;;6.54;100.00
929;BME280;451;47.988;7.842;2024-02-23T23:49:35;96807.28;;;6.10;100.00
929;BME280;451;47.988;7.842;2024-02-23T23:58:43;96838.56;;;6.10;100.00
